Conklingville, New York
Current Conditions -  °F | °C
As of 5:53 PM on Wednesday 26 Nov 2014 (Local Time) from KGFL Reporting Station
Light Snow Light Snow  
Wind Chill: 23°   Ceiling: 900
Heat Index: 32°   Visibility: 0.75mi
Dew Point: 29°   Wind: 12mph
Humidity: 88%   Direction: 10°N
Pressure: 30"   Gusts: NA
Location:  43.3006°N, 74.0106°W
Report Text: KGFL 262253Z AUTO 01010KT 3/4SM -SN BR VV009 00/M02 A3000 RMK AO2 SLP166 P0002 T00001017
Loading
Personal Weather Stations






























Interactive Weather Map New forecast layout! Learn more

10-Day Weather Forecast

Advertisements
Track Severe Weather on mobile